Terminal Aerodrome Forecast
Issued by NWS

Home | Current Version | Previous Version | Text Only | Print | Product List | Glossary On
Versions: 1 2 3 4 5 6 7 8 9 10 11 12
751
FTUS42 KMLB 261721
TAFISM
TAF
KISM 261721Z 2618/2718 16007KT P6SM SCT035
     FM261900 13008KT P6SM VCTS SCT040CB BKN080
      TEMPO 2621/2623 3SM TSRA BKN020CB OVC040
     FM270000 12006KT P6SM SCT100=

USA.gov is the U.S. government's official web portal to all federal, state and local government web resources and services.